createdAt,value
2023-04-23T00:02:09.393Z,8.30
2023-04-23T00:04:39.176Z,8.20
2023-04-23T00:07:09.131Z,8.20
2023-04-23T00:09:40.110Z,8.20
2023-04-23T00:12:09.302Z,8.20
2023-04-23T00:14:37.860Z,8.20
2023-04-23T00:17:06.236Z,8.20
2023-04-23T00:19:34.327Z,8.20
2023-04-23T00:22:03.107Z,8.20
2023-04-23T00:24:32.021Z,8.20
2023-04-23T00:27:01.574Z,8.20
2023-04-23T00:29:29.692Z,8.20
2023-04-23T00:31:57.910Z,8.20
2023-04-23T00:34:26.752Z,8.20
2023-04-23T00:36:54.916Z,8.10
2023-04-23T00:39:23.104Z,8.20
2023-04-23T00:41:51.256Z,8.20
2023-04-23T00:44:20.866Z,8.20
2023-04-23T00:46:49.433Z,8.20
2023-04-23T00:49:18.625Z,8.20
2023-04-23T00:51:46.764Z,8.20
2023-04-23T00:54:15.340Z,8.20
2023-04-23T00:56:43.409Z,8.20
2023-04-23T00:59:11.549Z,8.30
2023-04-23T01:01:41.899Z,8.30
2023-04-23T01:04:10.809Z,8.40
2023-04-23T01:06:38.972Z,8.40
2023-04-23T01:09:07.529Z,8.40
2023-04-23T01:11:35.704Z,8.40
2023-04-23T01:14:04.309Z,8.40
2023-04-23T01:16:33.769Z,8.50
2023-04-23T01:19:03.438Z,8.60
2023-04-23T01:21:32.444Z,8.60
2023-04-23T01:24:02.396Z,8.60
2023-04-23T01:26:30.642Z,8.60
2023-04-23T01:28:59.168Z,8.60
2023-04-23T01:31:28.319Z,8.60
2023-04-23T01:33:57.168Z,8.60
2023-04-23T01:36:27.220Z,8.60
2023-04-23T01:38:55.511Z,8.60
2023-04-23T01:41:25.163Z,8.60
2023-04-23T01:43:53.592Z,8.70
2023-04-23T01:46:22.162Z,8.70
2023-04-23T01:48:50.440Z,8.80
2023-04-23T01:51:18.722Z,8.80
2023-04-23T01:53:46.843Z,8.80
2023-04-23T01:56:17.391Z,8.80
2023-04-23T01:58:47.000Z,8.90
2023-04-23T02:01:15.094Z,8.90
2023-04-23T02:03:43.447Z,8.90
2023-04-23T02:06:11.938Z,8.90
2023-04-23T02:08:41.118Z,8.90
2023-04-23T02:11:09.308Z,8.90
2023-04-23T02:13:37.447Z,8.90
2023-04-23T02:16:07.745Z,8.90
2023-04-23T02:18:35.932Z,8.90
2023-04-23T02:21:04.646Z,8.90
2023-04-23T02:23:32.785Z,8.90
2023-04-23T02:26:00.919Z,8.90
2023-04-23T02:28:29.001Z,8.90
2023-04-23T02:30:57.129Z,8.90
2023-04-23T02:33:26.812Z,8.90
2023-04-23T02:35:55.035Z,8.90
2023-04-23T02:38:23.208Z,8.90
2023-04-23T02:40:51.386Z,8.90
2023-04-23T02:43:19.471Z,8.90
2023-04-23T02:45:47.605Z,8.90
2023-04-23T02:48:15.832Z,8.90
2023-04-23T02:50:46.782Z,8.90
2023-04-23T02:53:14.966Z,8.90
2023-04-23T02:55:43.196Z,8.90
2023-04-23T02:58:11.883Z,8.90
2023-04-23T03:00:40.162Z,8.90
2023-04-23T03:03:09.483Z,8.90
2023-04-23T03:05:39.571Z,8.90
2023-04-23T03:08:09.120Z,8.90
2023-04-23T03:10:37.224Z,8.90
2023-04-23T03:13:05.513Z,8.90
2023-04-23T03:15:33.685Z,8.90
2023-04-23T03:18:04.488Z,8.90
2023-04-23T03:20:32.678Z,8.90
2023-04-23T03:23:00.852Z,8.90
2023-04-23T03:25:30.491Z,8.90
2023-04-23T03:27:58.604Z,8.90
2023-04-23T03:30:27.019Z,8.90
2023-04-23T03:32:56.891Z,8.90
2023-04-23T03:35:25.887Z,8.80
2023-04-23T03:37:53.976Z,8.80
2023-04-23T03:40:22.500Z,8.80
2023-04-23T03:42:51.989Z,8.80
2023-04-23T03:45:20.388Z,8.80
2023-04-23T03:47:48.593Z,8.70
2023-04-23T03:50:17.503Z,8.70
2023-04-23T03:52:45.829Z,8.70
2023-04-23T03:55:13.988Z,8.70
2023-04-23T03:57:42.494Z,8.70
2023-04-23T04:00:13.286Z,8.70
2023-04-23T04:02:42.004Z,8.70
2023-04-23T04:05:11.793Z,8.70
2023-04-23T04:07:41.213Z,8.60
2023-04-23T04:10:09.830Z,8.60
2023-04-23T04:12:38.071Z,8.60
2023-04-23T04:15:07.048Z,8.50
2023-04-23T04:17:36.512Z,8.50
2023-04-23T04:20:04.941Z,8.50
2023-04-23T04:22:33.064Z,8.50
2023-04-23T04:25:01.305Z,8.50
2023-04-23T04:27:29.473Z,8.50
2023-04-23T04:29:57.710Z,8.50
2023-04-23T04:32:26.832Z,8.40
2023-04-23T04:34:56.368Z,8.40
2023-04-23T04:37:25.181Z,8.40
2023-04-23T04:39:54.536Z,8.40
2023-04-23T04:42:22.903Z,8.50
2023-04-23T04:44:51.337Z,8.50
2023-04-23T04:47:20.007Z,8.50
2023-04-23T04:49:48.822Z,8.50
2023-04-23T04:52:18.484Z,8.60
2023-04-23T04:54:46.703Z,8.50
2023-04-23T04:57:14.770Z,8.60
2023-04-23T04:59:43.144Z,8.60
2023-04-23T05:02:11.585Z,8.60
2023-04-23T05:04:40.435Z,8.60
2023-04-23T05:07:08.758Z,8.60
2023-04-23T05:09:38.260Z,8.60
2023-04-23T05:12:07.385Z,8.60
2023-04-23T05:14:35.427Z,8.60
2023-04-23T05:17:03.703Z,8.60
2023-04-23T05:19:32.395Z,8.60
2023-04-23T05:22:02.803Z,8.60
2023-04-23T05:24:30.969Z,8.70
2023-04-23T05:27:01.379Z,8.70
2023-04-23T05:29:29.479Z,8.70
2023-04-23T05:31:57.820Z,8.70
2023-04-23T05:34:26.210Z,8.80
2023-04-23T05:36:54.376Z,8.90
2023-04-23T05:39:22.521Z,8.90
2023-04-23T05:41:50.724Z,9.00
2023-04-23T05:44:20.653Z,9.00
2023-04-23T05:46:48.740Z,9.10
2023-04-23T05:49:16.970Z,9.20
2023-04-23T05:51:46.601Z,9.30
2023-04-23T05:54:14.880Z,9.40
2023-04-23T05:56:43.141Z,9.60
2023-04-23T05:59:11.513Z,9.70
2023-04-23T06:01:41.591Z,9.70
2023-04-23T06:04:09.985Z,9.90
2023-04-23T06:06:38.394Z,10.00
2023-04-23T06:09:06.967Z,10.30
2023-04-23T06:11:36.064Z,10.70
2023-04-23T06:14:06.524Z,10.90
2023-04-23T06:16:34.696Z,11.20
2023-04-23T06:19:04.777Z,11.30
2023-04-23T06:21:33.084Z,11.00
2023-04-23T06:24:01.285Z,11.40
2023-04-23T06:26:30.339Z,11.60
2023-04-23T06:28:59.365Z,11.70
2023-04-23T06:31:27.712Z,11.90
2023-04-23T06:33:56.002Z,11.90
2023-04-23T06:36:25.495Z,12.00
2023-04-23T06:38:53.604Z,12.00
2023-04-23T06:41:21.926Z,12.10
2023-04-23T06:43:50.177Z,12.20
2023-04-23T06:46:19.269Z,12.30
2023-04-23T06:48:47.509Z,12.30
2023-04-23T06:51:17.135Z,12.50
2023-04-23T06:53:46.756Z,12.50
2023-04-23T06:56:15.433Z,12.70
2023-04-23T06:58:43.710Z,12.70
2023-04-23T07:01:12.089Z,12.80
2023-04-23T07:03:45.056Z,12.90
2023-04-23T07:06:14.582Z,12.90
2023-04-23T07:08:43.073Z,13.00
2023-04-23T07:11:12.771Z,13.10
2023-04-23T07:13:41.275Z,13.40
2023-04-23T07:16:09.947Z,13.50
2023-04-23T07:18:38.401Z,13.60
2023-04-23T07:21:06.630Z,13.60
2023-04-23T07:23:35.066Z,13.80
2023-04-23T07:26:03.834Z,13.90
2023-04-23T07:28:33.492Z,13.90
2023-04-23T07:31:01.645Z,13.80
2023-04-23T07:33:30.935Z,13.90
2023-04-23T07:35:59.411Z,13.90
2023-04-23T07:38:27.550Z,14.10
2023-04-23T07:40:56.259Z,14.30
2023-04-23T07:43:25.155Z,14.40
2023-04-23T07:45:54.719Z,14.40
2023-04-23T07:48:23.035Z,14.50
2023-04-23T07:50:51.273Z,14.30
2023-04-23T07:53:19.648Z,14.60
2023-04-23T07:55:47.791Z,14.70
2023-04-23T07:58:16.086Z,14.70
2023-04-23T08:00:44.207Z,14.90
2023-04-23T08:03:14.219Z,15.10
2023-04-23T08:05:43.105Z,15.00
2023-04-23T08:08:13.860Z,14.90
2023-04-23T08:10:42.340Z,15.10
2023-04-23T08:13:11.176Z,15.20
2023-04-23T08:15:39.423Z,15.30
2023-04-23T08:18:07.874Z,15.30
2023-04-23T08:20:37.490Z,15.40
2023-04-23T08:23:05.726Z,15.50
2023-04-23T08:25:34.868Z,15.50
2023-04-23T08:28:03.927Z,15.70
2023-04-23T08:30:32.185Z,15.60
2023-04-23T08:33:00.475Z,15.70
2023-04-23T08:35:28.780Z,15.70
2023-04-23T08:37:58.503Z,16.00
2023-04-23T08:40:30.836Z,16.00
2023-04-23T08:43:02.524Z,16.20
2023-04-23T08:45:31.730Z,16.00
2023-04-23T08:48:02.671Z,16.20
2023-04-23T08:50:32.057Z,16.40
2023-04-23T08:53:02.992Z,16.20
2023-04-23T08:55:31.417Z,16.70
2023-04-23T08:57:59.988Z,16.70
2023-04-23T09:00:28.300Z,16.90
2023-04-23T09:02:57.745Z,16.90
2023-04-23T09:05:27.999Z,16.80
2023-04-23T09:07:56.767Z,16.50
2023-04-23T09:10:26.461Z,16.70
2023-04-23T09:12:54.966Z,16.50
2023-04-23T09:15:23.259Z,16.70
2023-04-23T09:17:51.577Z,16.90
2023-04-23T09:20:19.991Z,17.00
2023-04-23T09:22:49.581Z,17.30
2023-04-23T09:25:19.698Z,17.10
2023-04-23T09:27:50.444Z,17.20
2023-04-23T09:30:20.025Z,17.30
2023-04-23T09:32:49.584Z,17.50
2023-04-23T09:35:19.985Z,17.50
2023-04-23T09:37:52.471Z,17.40
2023-04-23T09:40:23.485Z,17.70
2023-04-23T09:42:54.722Z,17.40
2023-04-23T09:45:25.175Z,17.60
2023-04-23T09:47:55.484Z,17.90
2023-04-23T09:50:35.278Z,17.90
2023-04-23T09:53:05.014Z,18.30
2023-04-23T09:55:37.410Z,18.50
2023-04-23T09:58:08.181Z,18.70
2023-04-23T10:00:37.876Z,18.50
2023-04-23T10:03:08.128Z,17.80
2023-04-23T10:05:59.558Z,18.20
2023-04-23T10:08:29.837Z,18.30
2023-04-23T10:11:09.513Z,18.60
2023-04-23T10:13:43.825Z,19.10
2023-04-23T10:16:22.328Z,19.00
2023-04-23T10:18:55.479Z,18.80
2023-04-23T10:21:39.477Z,19.00
2023-04-23T10:24:15.850Z,18.80
2023-04-23T10:26:45.565Z,18.90
2023-04-23T10:29:17.325Z,18.90
2023-04-23T10:31:47.755Z,18.40
2023-04-23T10:34:17.185Z,17.90
2023-04-23T10:36:45.493Z,17.80
2023-04-23T10:41:45.578Z,18.20
2023-04-23T10:44:17.280Z,18.70
2023-04-23T10:46:53.657Z,18.70
2023-04-23T10:49:24.515Z,19.20
2023-04-23T10:52:18.862Z,19.10
2023-04-23T10:54:50.401Z,19.20
2023-04-23T10:57:19.297Z,19.40
2023-04-23T10:59:54.896Z,19.00
2023-04-23T11:02:26.061Z,19.10
2023-04-23T11:04:57.965Z,19.00
2023-04-23T11:07:31.043Z,18.60
2023-04-23T11:10:01.270Z,18.50
2023-04-23T11:12:33.851Z,18.90
2023-04-23T11:15:12.357Z,19.00
2023-04-23T11:18:03.360Z,18.60
2023-04-23T11:20:31.619Z,18.80
2023-04-23T11:22:59.823Z,18.50
2023-04-23T11:25:30.519Z,18.40
2023-04-23T11:27:59.569Z,18.70
2023-04-23T11:30:30.751Z,19.10
2023-04-23T11:33:01.364Z,19.60
2023-04-23T11:35:33.641Z,19.10
2023-04-23T11:38:01.816Z,19.30
2023-04-23T11:40:31.073Z,19.20
2023-04-23T11:42:59.445Z,19.40
2023-04-23T11:45:30.670Z,19.00
2023-04-23T11:48:01.529Z,18.80
2023-04-23T11:50:33.009Z,18.80
2023-04-23T11:53:06.367Z,18.50
2023-04-23T11:55:34.453Z,18.70
2023-04-23T11:58:02.672Z,18.60
2023-04-23T12:00:32.191Z,18.70
2023-04-23T12:03:01.692Z,18.60
2023-04-23T12:05:32.832Z,18.70
2023-04-23T12:08:11.219Z,19.00
2023-04-23T12:10:47.565Z,19.10
2023-04-23T12:13:16.858Z,19.20
2023-04-23T12:15:51.653Z,19.60
2023-04-23T12:18:20.489Z,19.50
2023-04-23T12:20:48.547Z,19.60
2023-04-23T12:23:16.927Z,19.50
2023-04-23T12:25:45.069Z,19.40
2023-04-23T12:28:13.286Z,19.50
2023-04-23T12:30:45.555Z,20.00
2023-04-23T12:33:15.644Z,19.90
2023-04-23T12:35:44.955Z,19.80
2023-04-23T12:38:23.765Z,19.90
2023-04-23T12:40:52.469Z,19.70
2023-04-23T12:43:20.680Z,19.10
2023-04-23T12:45:49.226Z,19.10
2023-04-23T12:48:19.089Z,19.00
2023-04-23T12:50:51.169Z,18.90
2023-04-23T12:53:19.937Z,18.70
2023-04-23T12:55:50.205Z,18.60
2023-04-23T12:58:18.366Z,18.70
2023-04-23T13:00:46.566Z,18.70
2023-04-23T13:03:15.761Z,18.80
2023-04-23T13:05:45.436Z,18.60
2023-04-23T13:08:13.628Z,18.50
2023-04-23T13:10:41.902Z,18.30
2023-04-23T13:13:10.015Z,18.30
2023-04-23T13:15:38.178Z,18.30
2023-04-23T13:18:06.953Z,18.30
2023-04-23T13:20:35.176Z,18.10
2023-04-23T13:23:04.824Z,18.10
2023-04-23T13:25:33.081Z,17.90
2023-04-23T13:28:01.332Z,18.00
2023-04-23T13:30:29.481Z,18.00
2023-04-23T13:32:59.266Z,18.10
2023-04-23T13:35:27.449Z,18.10
2023-04-23T13:37:56.247Z,18.10
2023-04-23T13:40:25.727Z,18.10
2023-04-23T13:42:55.049Z,18.20
2023-04-23T13:45:23.193Z,18.10
2023-04-23T13:47:51.409Z,18.10
2023-04-23T13:50:19.684Z,18.60
2023-04-23T13:52:48.106Z,18.60
2023-04-23T13:55:16.857Z,18.50
2023-04-23T13:57:46.498Z,18.40
2023-04-23T14:00:15.796Z,18.40
2023-04-23T14:02:43.927Z,18.30
2023-04-23T14:05:12.257Z,18.00
2023-04-23T14:07:43.786Z,17.80
2023-04-23T14:10:12.512Z,17.80
2023-04-23T14:12:40.846Z,17.90
2023-04-23T14:15:11.176Z,17.80
2023-04-23T14:17:40.681Z,17.80
2023-04-23T14:20:09.534Z,17.90
2023-04-23T14:22:37.928Z,17.90
2023-04-23T14:25:10.555Z,17.90
2023-04-23T14:27:42.476Z,17.90
2023-04-23T14:30:17.424Z,17.90
2023-04-23T14:32:49.267Z,17.70
2023-04-23T14:35:22.727Z,17.50
2023-04-23T14:37:57.691Z,17.20
2023-04-23T14:40:25.847Z,16.90
2023-04-23T14:42:56.994Z,16.40
2023-04-23T14:45:31.306Z,15.80
2023-04-23T14:47:59.897Z,15.60
2023-04-23T14:50:28.886Z,15.50
2023-04-23T14:52:58.825Z,15.30
2023-04-23T14:55:27.107Z,15.10
2023-04-23T14:57:55.215Z,14.70
2023-04-23T15:00:23.531Z,14.40
2023-04-23T15:02:53.352Z,14.30
2023-04-23T15:05:21.583Z,14.20
2023-04-23T15:07:51.477Z,14.20
2023-04-23T15:10:21.765Z,14.20
2023-04-23T15:12:56.835Z,14.20
2023-04-23T15:15:41.208Z,14.10
2023-04-23T15:18:15.558Z,14.00
2023-04-23T15:20:44.333Z,13.80
2023-04-23T15:23:12.432Z,13.80
2023-04-23T15:25:40.981Z,13.90
2023-04-23T15:28:09.438Z,13.80
2023-04-23T15:30:37.472Z,13.90
2023-04-23T15:33:05.644Z,13.80
2023-04-23T15:35:35.116Z,13.50
2023-04-23T15:38:03.331Z,13.50
2023-04-23T15:40:31.477Z,13.50
2023-04-23T15:43:00.192Z,13.50
2023-04-23T15:45:28.453Z,13.50
2023-04-23T15:47:56.905Z,13.50
2023-04-23T15:50:26.729Z,13.40
2023-04-23T15:52:58.334Z,13.30
2023-04-23T15:55:26.618Z,13.30
2023-04-23T15:57:54.680Z,13.30
2023-04-23T16:00:23.396Z,13.20
2023-04-23T16:02:51.703Z,13.20
2023-04-23T16:05:20.251Z,13.20
2023-04-23T16:07:48.426Z,13.20
2023-04-23T16:10:17.991Z,13.30
2023-04-23T16:12:47.873Z,13.20
2023-04-23T16:15:16.089Z,13.00
2023-04-23T16:17:44.266Z,13.00
2023-04-23T16:20:13.132Z,13.00
2023-04-23T16:22:41.265Z,12.90
2023-04-23T16:25:10.429Z,12.90
2023-04-23T16:27:40.350Z,13.00
2023-04-23T16:30:09.839Z,13.00
2023-04-23T16:32:37.946Z,13.00
2023-04-23T16:35:06.660Z,12.80
2023-04-23T16:37:34.749Z,12.70
2023-04-23T16:40:03.001Z,12.50
2023-04-23T16:42:31.095Z,12.50
2023-04-23T16:45:00.606Z,12.50
2023-04-23T16:47:28.812Z,12.50
2023-04-23T16:49:56.952Z,12.50
2023-04-23T16:52:25.143Z,12.40
2023-04-23T16:54:53.240Z,12.50
2023-04-23T16:57:21.633Z,12.40
2023-04-23T16:59:49.763Z,12.30
2023-04-23T17:02:19.348Z,12.30
2023-04-23T17:04:47.985Z,12.40
2023-04-23T17:07:17.069Z,12.40
2023-04-23T17:09:45.279Z,12.40
2023-04-23T17:12:13.610Z,12.40
2023-04-23T17:14:41.807Z,12.50
2023-04-23T17:17:10.465Z,12.50
2023-04-23T17:19:39.986Z,12.50
2023-04-23T17:22:10.699Z,12.40
2023-04-23T17:24:39.374Z,12.50
2023-04-23T17:27:07.557Z,12.40
2023-04-23T17:29:35.917Z,12.40
2023-04-23T17:32:04.416Z,12.40
2023-04-23T17:34:32.634Z,12.30
2023-04-23T17:37:02.141Z,12.30
2023-04-23T17:39:30.277Z,12.30
2023-04-23T17:41:58.575Z,12.20
2023-04-23T17:44:26.808Z,12.30
2023-04-23T17:46:55.168Z,12.20
2023-04-23T17:49:23.371Z,12.20
2023-04-23T17:51:51.427Z,12.20
2023-04-23T17:54:21.382Z,12.20
2023-04-23T17:56:49.593Z,12.20
2023-04-23T17:59:17.734Z,12.10
2023-04-23T18:01:45.941Z,12.20
2023-04-23T18:04:17.370Z,12.10
2023-04-23T18:06:46.546Z,12.20
2023-04-23T18:09:15.156Z,12.10
2023-04-23T18:11:45.790Z,12.10
2023-04-23T18:14:13.880Z,12.10
2023-04-23T18:16:41.994Z,12.10
2023-04-23T18:19:10.144Z,12.20
2023-04-23T18:21:38.913Z,12.10
2023-04-23T18:24:07.539Z,12.10
2023-04-23T18:26:36.016Z,12.10
2023-04-23T18:29:05.705Z,12.10
2023-04-23T18:31:33.901Z,12.10
2023-04-23T18:34:03.263Z,12.10
2023-04-23T18:36:33.033Z,12.10
2023-04-23T18:39:01.436Z,12.10
2023-04-23T18:41:30.090Z,12.10
2023-04-23T18:44:00.115Z,12.10
2023-04-23T18:46:31.365Z,12.10
2023-04-23T18:49:01.722Z,12.00
2023-04-23T18:51:34.047Z,12.00
2023-04-23T18:54:02.742Z,12.00
2023-04-23T18:56:31.650Z,12.00
2023-04-23T18:58:59.886Z,12.00
2023-04-23T19:01:29.411Z,12.10
2023-04-23T19:03:57.966Z,12.10
2023-04-23T19:06:26.643Z,12.10
2023-04-23T19:08:54.897Z,12.10
2023-04-23T19:11:23.131Z,12.10
2023-04-23T19:13:51.314Z,12.20
2023-04-23T19:16:19.426Z,12.20
2023-04-23T19:18:49.004Z,12.10
2023-04-23T19:21:17.151Z,12.10
2023-04-23T19:23:45.240Z,12.20
2023-04-23T19:26:13.518Z,12.20
2023-04-23T19:28:41.774Z,12.20
2023-04-23T19:31:09.992Z,12.20
2023-04-23T19:33:38.207Z,12.20
2023-04-23T19:36:07.833Z,12.20
2023-04-23T19:38:35.923Z,12.20
2023-04-23T19:41:04.218Z,12.20
2023-04-23T19:43:32.440Z,12.20
2023-04-23T19:46:00.597Z,12.10
2023-04-23T19:48:28.677Z,12.20
2023-04-23T19:50:56.794Z,12.10
2023-04-23T19:53:26.909Z,12.10
2023-04-23T19:55:55.078Z,12.10
2023-04-23T19:58:23.231Z,12.00
2023-04-23T20:00:52.224Z,11.90
2023-04-23T20:03:21.148Z,11.90
2023-04-23T20:05:49.806Z,11.90
2023-04-23T20:08:26.118Z,11.80
2023-04-23T20:10:56.115Z,11.80
2023-04-23T20:13:25.089Z,11.80
2023-04-23T20:15:55.057Z,11.80
2023-04-23T20:18:25.497Z,11.70
2023-04-23T20:20:53.918Z,11.70
2023-04-23T20:23:21.976Z,11.70
2023-04-23T20:25:50.050Z,11.70
2023-04-23T20:28:19.592Z,11.70
2023-04-23T20:30:47.742Z,11.70
2023-04-23T20:33:18.682Z,11.60
2023-04-23T20:35:47.715Z,11.70
2023-04-23T20:38:19.170Z,11.60
2023-04-23T20:40:47.355Z,11.60
2023-04-23T20:43:15.540Z,11.60
2023-04-23T20:45:46.613Z,11.60
2023-04-23T20:48:15.393Z,11.60
2023-04-23T20:50:43.479Z,11.60
2023-04-23T20:53:11.569Z,11.60
2023-04-23T20:55:39.705Z,11.60
2023-04-23T20:58:07.845Z,11.60
2023-04-23T21:00:36.920Z,11.50
2023-04-23T21:03:06.913Z,11.40
2023-04-23T21:05:35.086Z,11.40
2023-04-23T21:08:03.422Z,11.40
2023-04-23T21:10:31.711Z,11.30
2023-04-23T21:13:00.071Z,11.20
2023-04-23T21:15:29.659Z,11.20
2023-04-23T21:17:57.846Z,11.20
2023-04-23T21:20:27.414Z,11.20
2023-04-23T21:22:55.805Z,11.20
2023-04-23T21:25:23.978Z,11.20
2023-04-23T21:27:52.046Z,11.20
2023-04-23T21:30:25.885Z,11.20
2023-04-23T21:32:54.358Z,11.20
2023-04-23T21:35:22.553Z,11.10
2023-04-23T21:37:52.012Z,11.10
2023-04-23T21:40:20.275Z,11.10
2023-04-23T21:42:48.453Z,11.10
2023-04-23T21:45:17.389Z,11.00
2023-04-23T21:47:45.700Z,11.00
2023-04-23T21:50:13.888Z,11.00
2023-04-23T21:52:43.971Z,10.90
2023-04-23T21:55:13.796Z,10.90
2023-04-23T21:57:41.990Z,11.00
2023-04-23T22:00:13.954Z,10.90
2023-04-23T22:02:46.335Z,10.80
2023-04-23T22:05:17.010Z,10.90
2023-04-23T22:07:45.309Z,10.90
2023-04-23T22:10:16.475Z,10.90
2023-04-23T22:12:45.678Z,10.90
2023-04-23T22:15:16.068Z,10.80
2023-04-23T22:17:46.318Z,10.80
2023-04-23T22:20:15.832Z,10.90
2023-04-23T22:22:44.472Z,10.80
2023-04-23T22:25:14.059Z,10.70
2023-04-23T22:27:42.654Z,10.80
2023-04-23T22:30:12.066Z,10.70
2023-04-23T22:32:41.335Z,10.70
2023-04-23T22:35:10.387Z,10.70
2023-04-23T22:37:38.748Z,10.70
2023-04-23T22:40:09.638Z,10.60
2023-04-23T22:42:39.475Z,10.60
2023-04-23T22:45:08.569Z,10.60
2023-04-23T22:47:36.653Z,10.60
2023-04-23T22:50:05.610Z,10.50
2023-04-23T22:52:33.804Z,10.50
2023-04-23T22:55:02.159Z,10.50
2023-04-23T22:57:30.753Z,10.50
2023-04-23T23:00:00.976Z,10.50
2023-04-23T23:02:29.232Z,10.40
2023-04-23T23:04:57.456Z,10.30
2023-04-23T23:07:25.620Z,10.30
2023-04-23T23:09:53.783Z,10.30
2023-04-23T23:12:22.470Z,10.20
2023-04-23T23:14:50.424Z,10.20
2023-04-23T23:17:19.912Z,10.20
2023-04-23T23:19:48.064Z,10.20
2023-04-23T23:22:16.343Z,10.20
2023-04-23T23:24:45.071Z,10.20
2023-04-23T23:27:13.218Z,10.20
2023-04-23T23:29:41.759Z,10.20
2023-04-23T23:32:10.176Z,10.20
2023-04-23T23:34:39.675Z,10.20
2023-04-23T23:37:07.824Z,10.20
2023-04-23T23:39:35.942Z,10.20
2023-04-23T23:42:04.092Z,10.20
2023-04-23T23:44:32.818Z,10.20
2023-04-23T23:47:01.195Z,10.20
2023-04-23T23:49:29.603Z,10.20
2023-04-23T23:51:59.299Z,10.20
2023-04-23T23:54:27.370Z,10.20
2023-04-23T23:56:56.966Z,10.20
2023-04-23T23:59:25.166Z,10.20
